Time;durP1;ratioP1;P1;durP2;ratioP2;P2;SDS_P1;SDS_P2;PMS_P1;PMS_P2;Temp;Humidity;BMP_temperature;BMP_pressure;BME280_temperature;BME280_humidity;BME280_pressure;Samples;Min_cycle;Max_cycle;Signal;HPM_P1;HPM_P2
2021/04/16 00:00:37;;;;;;;6.38;3.30;;;;;;;0.72;100.00;98523.44;5059944;28;20045;-82
2021/04/16 00:03:06;;;;;;;7.20;3.05;;;;;;;0.65;100.00;98531.50;5063877;28;20072;-82
2021/04/16 00:05:33;;;;;;;4.80;2.95;;;;;;;0.72;100.00;98526.91;5047019;28;20048;-81
2021/04/16 00:07:59;;;;;;;5.18;3.28;;;;;;;0.69;100.00;98521.22;5038395;28;20052;-81
2021/04/16 00:10:50;;;;;;;8.23;3.30;;;;;;;0.80;100.00;98518.56;5030093;28;20041;-82
2021/04/16 00:13:21;;;;;;;6.25;3.67;;;;;;;0.77;100.00;98520.88;5041002;28;20049;-81
2021/04/16 00:16:08;;;;;;;7.53;4.40;;;;;;;0.70;100.00;98510.31;5040081;28;20099;-82
2021/04/16 00:18:35;;;;;;;7.18;4.05;;;;;;;0.76;100.00;98511.25;5040235;28;20065;-82
2021/04/16 00:21:01;;;;;;;6.45;3.85;;;;;;;0.77;100.00;98511.03;5042620;28;20048;-83
2021/04/16 00:23:29;;;;;;;6.30;3.88;;;;;;;0.72;100.00;98505.59;5056478;28;20067;-83
2021/04/16 00:25:56;;;;;;;8.68;3.80;;;;;;;0.61;100.00;98514.38;5058136;28;20036;-84
2021/04/16 00:28:25;;;;;;;7.18;3.85;;;;;;;0.69;100.00;98497.22;5041010;28;20045;-81
2021/04/16 00:30:58;;;;;;;8.00;3.60;;;;;;;0.67;100.00;98489.50;5041665;28;20100;-82
2021/04/16 00:33:25;;;;;;;6.53;3.72;;;;;;;0.73;100.00;98504.53;5040612;28;20071;-82
2021/04/16 00:35:51;;;;;;;5.55;3.15;;;;;;;0.70;100.00;98509.53;5027313;28;20075;-82
2021/04/16 00:38:22;;;;;;;4.75;3.28;;;;;;;0.70;100.00;98505.00;5039511;28;20037;-82
2021/04/16 00:40:57;;;;;;;5.57;3.13;;;;;;;0.68;100.00;98492.94;5040020;28;20045;-82
2021/04/16 00:43:24;;;;;;;7.05;3.45;;;;;;;0.66;100.00;98505.69;5045181;28;20035;-82
2021/04/16 00:46:13;;;;;;;4.25;2.90;;;;;;;0.63;100.00;98502.44;5043208;28;20040;-82
2021/04/16 00:48:47;;;;;;;4.75;3.35;;;;;;;0.57;100.00;98500.69;5040245;28;20048;-81
2021/04/16 00:51:28;;;;;;;9.52;4.03;;;;;;;0.53;100.00;98504.88;5041336;28;20057;-83
2021/04/16 00:53:56;;;;;;;5.57;3.70;;;;;;;0.50;100.00;98501.84;5042272;28;20056;-81
2021/04/16 00:56:23;;;;;;;7.25;3.65;;;;;;;0.44;100.00;98492.13;5047791;28;20144;-84
2021/04/16 00:58:50;;;;;;;6.72;3.78;;;;;;;0.51;100.00;98496.31;5045832;28;20057;-82
2021/04/16 01:01:16;;;;;;;9.13;3.45;;;;;;;0.51;100.00;98496.31;5071047;28;20068;-82
2021/04/16 01:03:42;;;;;;;7.35;3.50;;;;;;;0.49;100.00;98493.03;5026970;28;20045;-82
2021/04/16 01:06:10;;;;;;;5.95;3.38;;;;;;;0.49;100.00;98493.03;5042519;28;20045;-82
2021/04/16 01:08:41;;;;;;;7.85;3.97;;;;;;;0.40;100.00;98490.94;5061120;28;20057;-83
2021/04/16 01:11:08;;;;;;;8.00;4.07;;;;;;;0.43;100.00;98483.31;5042355;28;20052;-82
2021/04/16 01:13:37;;;;;;;8.52;4.10;;;;;;;0.49;100.00;98493.03;5048554;28;20079;-82
2021/04/16 01:16:10;;;;;;;7.25;3.92;;;;;;;0.55;100.00;98485.97;5041522;28;20069;-82
2021/04/16 01:18:40;;;;;;;6.43;4.30;;;;;;;0.48;100.00;98477.28;5062485;28;20040;-81
2021/04/16 01:21:19;;;;;;;7.95;4.72;;;;;;;0.45;100.00;98478.56;5060585;28;20071;-82
2021/04/16 01:24:05;;;;;;;8.13;4.80;;;;;;;0.46;100.00;98479.38;5045830;28;20681;-82
2021/04/16 01:26:36;;;;;;;7.47;4.82;;;;;;;0.42;100.00;98478.19;5067777;28;20045;-81
2021/04/16 01:29:03;;;;;;;7.93;5.35;;;;;;;0.46;100.00;98479.38;5060668;28;20067;-82
2021/04/16 01:31:29;;;;;;;8.02;4.80;;;;;;;0.41;100.00;98480.03;5066901;28;20045;-81
2021/04/16 01:33:56;;;;;;;8.50;4.90;;;;;;;0.36;100.00;98474.59;5043176;28;20053;-82
2021/04/16 01:36:30;;;;;;;10.90;4.65;;;;;;;0.37;100.00;98478.06;5057829;28;20041;-81
2021/04/16 01:38:59;;;;;;;8.60;4.65;;;;;;;0.36;100.00;98481.78;5058160;28;20045;-81
2021/04/16 01:41:27;;;;;;;10.00;4.88;;;;;;;0.32;100.00;98472.63;5062097;28;20041;-80
2021/04/16 01:44:03;;;;;;;7.72;4.68;;;;;;;0.32;100.00;98484.09;5043282;28;20084;-81
2021/04/16 01:46:29;;;;;;;9.25;4.82;;;;;;;0.31;100.00;98481.66;5046655;28;20332;-82
2021/04/16 01:48:58;;;;;;;10.55;5.00;;;;;;;0.38;100.00;98483.19;5063810;28;20041;-82
2021/04/16 01:51:34;;;;;;;7.75;4.03;;;;;;;0.41;100.00;98476.59;5046268;28;20144;-82
2021/04/16 01:54:08;;;;;;;12.52;3.88;;;;;;;0.42;100.00;98480.84;5053644;28;20040;-82
2021/04/16 01:56:35;;;;;;;6.60;4.23;;;;;;;0.43;100.00;98483.31;5077078;28;20037;-82
2021/04/16 01:59:05;;;;;;;5.75;4.05;;;;;;;0.36;100.00;98474.59;5068064;28;20546;-81
2021/04/16 02:01:31;;;;;;;7.03;4.65;;;;;;;0.42;100.00;98483.53;5041972;28;20136;-82
2021/04/16 02:03:59;;;;;;;12.27;4.78;;;;;;;0.39;100.00;98478.66;5064893;28;20259;-81
2021/04/16 02:06:26;;;;;;;10.65;5.07;;;;;;;0.39;100.00;98468.00;5083753;28;20049;-81
2021/04/16 02:08:55;;;;;;;10.60;5.00;;;;;;;0.44;100.00;98478.81;5069944;28;20071;-80
2021/04/16 02:11:21;;;;;;;8.55;5.22;;;;;;;0.49;100.00;98481.59;5069281;28;20033;-81
2021/04/16 02:13:47;;;;;;;8.93;5.22;;;;;;;0.43;100.00;98480.66;5069795;28;20041;-80
2021/04/16 02:16:13;;;;;;;8.88;5.18;;;;;;;0.40;100.00;98481.09;5050386;28;20036;-81
2021/04/16 02:18:40;;;;;;;12.90;6.18;;;;;;;0.42;100.00;98476.34;5073286;28;20093;-82
2021/04/16 02:21:06;;;;;;;10.07;5.53;;;;;;;0.48;100.00;98478.09;5070650;28;20142;-80
2021/04/16 02:23:32;;;;;;;9.43;6.00;;;;;;;0.47;100.00;98473.00;5066201;28;20076;-81
2021/04/16 02:25:59;;;;;;;11.27;6.13;;;;;;;0.41;100.00;98471.25;5030208;28;20056;-81
2021/04/16 02:28:26;;;;;;;13.27;5.68;;;;;;;0.42;100.00;98475.53;5032247;28;20044;-81
2021/04/16 02:30:52;;;;;;;8.98;5.57;;;;;;;0.44;100.00;98465.50;5063643;28;20131;-81
2021/04/16 02:33:18;;;;;;;9.70;5.70;;;;;;;0.38;100.00;98469.06;5041762;28;20044;-80
2021/04/16 02:35:45;;;;;;;9.57;5.68;;;;;;;0.42;100.00;98475.53;5039452;28;20045;-81
2021/04/16 02:38:12;;;;;;;8.98;5.53;;;;;;;0.35;100.00;98470.31;5039564;28;20045;-81
2021/04/16 02:40:38;;;;;;;8.65;5.72;;;;;;;0.37;100.00;98459.44;5022513;28;20045;-81
2021/04/16 02:43:04;;;;;;;10.25;5.75;;;;;;;0.40;100.00;98470.44;5039732;28;20052;-81
2021/04/16 02:45:30;;;;;;;8.23;5.15;;;;;;;0.43;100.00;98459.34;5041859;28;20053;-82
2021/04/16 02:47:56;;;;;;;8.77;6.05;;;;;;;0.34;100.00;98465.22;5039250;28;20041;-81
2021/04/16 02:50:28;;;;;;;8.52;5.32;;;;;;;0.34;100.00;98454.56;5062660;28;20140;-80
2021/04/16 02:52:57;;;;;;;8.50;5.68;;;;;;;0.36;100.00;98457.81;5053493;28;20101;-80
2021/04/16 02:55:24;;;;;;;8.27;5.05;;;;;;;0.34;100.00;98454.56;5067388;28;20132;-80
2021/04/16 02:57:51;;;;;;;6.93;4.82;;;;;;;0.33;100.00;98452.94;5044648;28;20053;-82
2021/04/16 03:00:22;;;;;;;8.35;5.22;;;;;;;0.40;100.00;98449.16;5067470;28;20041;-80
2021/04/16 03:02:48;;;;;;;9.95;5.38;;;;;;;0.35;100.00;98448.19;5068770;28;20045;-80
2021/04/16 03:05:15;;;;;;;8.98;6.03;;;;;;;0.42;100.00;98455.03;5067301;28;20689;-80
2021/04/16 03:07:43;;;;;;;8.25;5.47;;;;;;;0.40;100.00;98459.78;5062198;28;20048;-81
2021/04/16 03:10:20;;;;;;;9.63;6.03;;;;;;;0.42;100.00;98454.22;5040603;28;20045;-82
2021/04/16 03:12:46;;;;;;;11.95;6.00;;;;;;;0.46;100.00;98445.56;5043579;28;20045;-80
2021/04/16 03:15:14;;;;;;;9.63;6.05;;;;;;;0.47;100.00;98454.34;5023482;28;20041;-82
2021/04/16 03:17:41;;;;;;;9.30;5.50;;;;;;;0.44;100.00;98449.50;5039980;28;20051;-82
2021/04/16 03:20:09;;;;;;;10.20;5.70;;;;;;;0.45;100.00;98448.44;5058340;28;20448;-82
2021/04/16 03:22:37;;;;;;;11.40;6.15;;;;;;;0.44;100.00;98452.16;5038788;28;20069;-81
2021/04/16 03:25:05;;;;;;;11.88;6.63;;;;;;;0.41;100.00;98450.75;5057941;28;20736;-81
2021/04/16 03:27:31;;;;;;;12.43;6.80;;;;;;;0.43;100.00;98450.53;5058591;28;20088;-81
2021/04/16 03:30:18;;;;;;;11.63;7.15;;;;;;;0.47;100.00;98449.84;5046408;28;20457;-80
2021/04/16 03:32:47;;;;;;;12.60;7.32;;;;;;;0.47;100.00;98447.16;5059157;28;20056;-80
2021/04/16 03:35:16;;;;;;;11.48;7.28;;;;;;;0.48;100.00;98445.31;5058497;28;20068;-80
2021/04/16 03:37:44;;;;;;;11.38;7.13;;;;;;;0.44;100.00;98441.50;5058876;28;20173;-81
2021/04/16 03:40:13;;;;;;;13.10;7.68;;;;;;;0.45;100.00;98451.09;5043035;28;20049;-81
2021/04/16 03:42:40;;;;;;;13.02;8.07;;;;;;;0.44;100.00;98444.19;5042257;28;20051;-81
2021/04/16 03:45:07;;;;;;;15.73;8.10;;;;;;;0.44;100.00;98450.28;5041802;28;20045;-80
2021/04/16 03:47:36;;;;;;;13.52;8.02;;;;;;;0.44;100.00;98444.19;5045182;28;20037;-81
2021/04/16 03:50:04;;;;;;;14.00;8.55;;;;;;;0.43;100.00;98446.03;5061177;28;20485;-81
2021/04/16 03:52:32;;;;;;;15.90;8.93;;;;;;;0.42;100.00;98446.25;5022061;28;20065;-82
2021/04/16 03:55:00;;;;;;;14.23;9.00;;;;;;;0.37;100.00;98438.94;5056701;28;20036;-81
2021/04/16 03:57:54;;;;;;;15.35;8.65;;;;;;;0.39;100.00;98457.34;5026185;28;20041;-82
2021/04/16 04:00:25;;;;;;;14.98;8.68;;;;;;;0.44;100.00;98438.84;5018423;28;20049;-81
2021/04/16 04:02:53;;;;;;;15.52;9.70;;;;;;;0.39;100.00;98444.03;5022860;28;20135;-80
2021/04/16 04:05:28;;;;;;;16.30;9.63;;;;;;;0.40;100.00;98448.31;5006220;28;20080;-80
2021/04/16 04:08:00;;;;;;;20.67;10.40;;;;;;;0.43;100.00;98445.22;5018948;28;20065;-81
2021/04/16 04:11:04;;;;;;;16.52;9.82;;;;;;;0.48;100.00;98453.31;5008453;28;20116;-81
2021/04/16 04:14:15;;;;;;;20.52;11.85;;;;;;;0.82;100.00;98439.22;5036368;28;20056;-80
2021/04/16 04:17:35;;;;;;;19.08;11.20;;;;;;;0.75;100.00;98451.81;5035769;28;20416;-81
2021/04/16 04:20:45;;;;;;;18.20;10.77;;;;;;;0.74;100.00;98447.53;5024841;28;20034;-81
2021/04/16 04:23:55;;;;;;;19.58;11.45;;;;;;;0.64;100.00;98444.66;5024615;28;20117;-82
2021/04/16 04:27:05;;;;;;;19.33;10.55;;;;;;;0.59;100.00;98447.97;5036483;28;20029;-81
2021/04/16 04:30:18;;;;;;;16.98;10.25;;;;;;;0.50;100.00;98459.22;5044684;28;20036;-81
2021/04/16 04:33:28;;;;;;;17.33;10.60;;;;;;;0.56;100.00;98453.81;5069672;28;20041;-81
2021/04/16 04:36:38;;;;;;;18.05;10.48;;;;;;;0.57;100.00;98450.06;5049715;28;20501;-80
2021/04/16 04:39:31;;;;;;;17.55;10.68;;;;;;;0.54;100.00;98444.41;5034345;28;20080;-83
2021/04/16 04:42:39;;;;;;;20.65;11.15;;;;;;;0.61;100.00;98451.25;5025432;28;20037;-83
2021/04/16 04:45:52;;;;;;;17.73;10.70;;;;;;;0.61;100.00;98453.09;5049253;28;20071;-83
2021/04/16 04:49:19;;;;;;;16.95;9.70;;;;;;;0.50;100.00;98440.56;5046507;28;20033;-83
2021/04/16 04:52:33;;;;;;;18.63;10.63;;;;;;;0.56;100.00;98445.00;5053270;28;20040;-83
2021/04/16 04:59:33;;;;;;;19.75;10.80;;;;;;;0.69;100.00;98446.63;5042262;28;20045;-84
2021/04/16 05:02:44;;;;;;;19.60;11.13;;;;;;;0.69;100.00;98452.75;5058209;28;20037;-84
2021/04/16 05:05:19;;;;;;;22.23;11.60;;;;;;;0.59;100.00;98436.53;5061696;28;20064;-83
2021/04/16 05:07:46;;;;;;;20.67;11.15;;;;;;;0.70;100.00;98464.22;5075145;28;20163;-83
2021/04/16 05:10:16;;;;;;;23.48;12.27;;;;;;;0.65;100.00;98446.25;5039687;28;20046;-83
2021/04/16 05:12:43;;;;;;;21.65;12.02;;;;;;;0.76;100.00;98461.44;5042429;28;20037;-84
2021/04/16 05:15:16;;;;;;;24.70;13.20;;;;;;;0.69;100.00;98447.44;5044174;28;20083;-83
2021/04/16 05:17:45;;;;;;;25.38;13.73;;;;;;;0.71;100.00;98461.31;5025493;28;20045;-84
2021/04/16 05:20:15;;;;;;;26.02;14.10;;;;;;;0.69;100.00;98466.06;5037174;28;20404;-75
2021/04/16 05:23:15;;;;;;;28.25;13.88;;;;;;;0.69;100.00;98471.41;5042215;28;20120;-75
2021/04/16 05:25:45;;;;;;;24.30;14.18;;;;;;;0.77;100.00;98476.41;5039224;28;20370;-83
2021/04/16 05:28:12;;;;;;;25.15;13.60;;;;;;;0.87;100.00;98473.16;5052678;28;20045;-83
2021/04/16 05:30:44;;;;;;;21.90;11.90;;;;;;;0.80;100.00;98473.25;5059109;28;20071;-82
2021/04/16 05:33:10;;;;;;;23.13;12.02;;;;;;;0.80;100.00;98464.47;5064592;28;20033;-83
2021/04/16 05:35:39;;;;;;;21.15;11.82;;;;;;;0.76;100.00;98466.78;5049473;28;20045;-83
2021/04/16 05:38:06;;;;;;;19.92;10.70;;;;;;;0.84;100.00;98461.09;5024956;28;20049;-83
2021/04/16 05:40:33;;;;;;;22.80;12.32;;;;;;;0.86;100.00;98464.34;5037825;28;20068;-83
2021/04/16 05:43:04;;;;;;;20.05;11.07;;;;;;;0.91;100.00;98464.44;5053914;28;20040;-83
2021/04/16 05:45:33;;;;;;;16.75;10.10;;;;;;;0.83;100.00;98446.13;5058652;28;20052;-84
2021/04/16 05:47:59;;;;;;;18.73;9.77;;;;;;;0.85;100.00;98452.03;5054608;28;20135;-84
2021/04/16 05:50:39;;;;;;;16.13;9.48;;;;;;;0.83;100.00;98453.31;5029508;28;20106;-83
2021/04/16 05:53:08;;;;;;;17.95;9.82;;;;;;;0.87;100.00;98460.63;5038388;28;20496;-84
2021/04/16 05:55:41;;;;;;;16.42;9.45;;;;;;;0.82;100.00;98444.53;5037381;28;20049;-84
2021/04/16 05:58:13;;;;;;;18.20;10.05;;;;;;;0.93;100.00;98449.03;5036760;28;20080;-84
2021/04/16 06:00:39;;;;;;;19.23;9.80;;;;;;;1.06;100.00;98485.28;5012050;28;20056;-84
2021/04/16 06:03:19;;;;;;;19.77;10.20;;;;;;;1.07;100.00;98470.94;5038645;28;20056;-83
2021/04/16 06:05:48;;;;;;;19.60;10.60;;;;;;;0.92;100.00;98449.28;5039872;28;20059;-84
2021/04/16 06:08:20;;;;;;;15.43;9.68;;;;;;;1.05;100.00;98460.50;5022512;28;20045;-85
2021/04/16 06:11:10;;;;;;;16.58;9.77;;;;;;;1.04;100.00;98468.72;5031879;28;20056;-85
2021/04/16 06:14:05;;;;;;;15.98;9.73;;;;;;;0.98;100.00;98451.00;5029597;28;20052;-84
2021/04/16 06:16:32;;;;;;;16.48;8.68;;;;;;;1.03;100.00;98462.56;5022715;28;20040;-84
2021/04/16 06:19:07;;;;;;;15.98;9.20;;;;;;;1.12;100.00;98482.53;5007414;28;20285;-85
2021/04/16 06:22:12;;;;;;;16.80;8.85;;;;;;;0.97;100.00;98450.19;5022368;28;20042;-86
2021/04/16 06:29:09;;;;;;;12.90;8.05;;;;;;;1.26;100.00;98467.09;5036538;28;20463;-85
2021/04/16 06:32:00;;;;;;;10.07;6.73;;;;;;;1.21;100.00;98480.31;5006680;28;20050;-84
2021/04/16 06:34:28;;;;;;;12.50;7.32;;;;;;;1.13;100.00;98444.16;5035693;28;20496;-85
2021/04/16 06:37:19;;;;;;;11.90;6.88;;;;;;;1.21;100.00;98456.31;5010857;28;20034;-87
2021/04/16 06:39:52;;;;;;;12.18;7.15;;;;;;;1.20;100.00;98455.50;5006926;28;20072;-86
2021/04/16 06:42:46;;;;;;;12.65;6.72;;;;;;;1.30;100.00;98456.75;5005746;28;20093;-85
2021/04/16 06:45:38;;;;;;;12.85;7.07;;;;;;;1.21;100.00;98438.44;5027550;28;20131;-84
2021/04/16 06:48:15;;;;;;;12.13;7.35;;;;;;;1.35;100.00;98452.31;5047064;28;20071;-86
2021/04/16 06:50:59;;;;;;;11.23;6.60;;;;;;;1.34;100.00;98442.72;5042440;28;20044;-82
2021/04/16 06:54:02;;;;;;;8.90;5.90;;;;;;;1.51;100.00;98466.78;5058516;28;20147;-83
2021/04/16 06:56:37;;;;;;;12.00;6.97;;;;;;;1.38;100.00;98441.19;5082657;28;20045;-84
2021/04/16 06:59:31;;;;;;;12.02;6.07;;;;;;;1.42;100.00;98465.56;5050578;28;20045;-85
2021/04/16 07:02:08;;;;;;;11.25;5.85;;;;;;;1.49;100.00;98472.38;5064149;28;20040;-85
2021/04/16 07:04:50;;;;;;;11.75;6.18;;;;;;;1.47;100.00;98454.97;5068294;28;20072;-84
2021/04/16 07:07:52;;;;;;;11.85;5.60;;;;;;;1.55;100.00;98471.41;5069585;28;20052;-86
2021/04/16 07:10:50;;;;;;;10.00;5.90;;;;;;;1.45;100.00;98435.72;5035039;28;20045;-85
2021/04/16 07:14:19;;;;;;;11.60;5.60;;;;;;;1.51;100.00;98448.94;5049801;28;20047;-87
2021/04/16 07:17:58;;;;;;;10.27;5.28;;;;;;;1.56;100.00;98458.88;4914501;29;20051;-87
2021/04/16 07:20:58;;;;;;;10.23;5.43;;;;;;;1.48;100.00;98462.75;4905579;29;20052;-87
2021/04/16 07:24:03;;;;;;;9.05;5.78;;;;;;;1.55;100.00;98465.28;4895396;29;20048;-87
2021/04/16 07:27:01;;;;;;;14.40;5.50;;;;;;;1.44;100.00;98466.94;4961435;28;20038;-86
2021/04/16 07:30:08;;;;;;;;;;;;;;;;;;;;;
2021/04/16 07:33:05;;;;;;;11.75;5.95;;;;;;;1.48;100.00;98470.75;4992303;28;20054;-85
2021/04/16 07:36:43;;;;;;;8.32;5.22;;;;;;;1.53;100.00;98478.84;4967796;28;20066;-85
2021/04/16 07:39:17;;;;;;;10.82;6.38;;;;;;;1.65;100.00;98484.94;4976084;28;20046;-87
2021/04/16 07:42:16;;;;;;;12.68;5.65;;;;;;;1.74;100.00;98496.06;4977444;28;20089;-87
2021/04/16 07:48:22;;;;;;;9.95;5.60;;;;;;;1.57;100.00;98484.53;4974917;28;20050;-86
2021/04/16 07:51:34;;;;;;;;;;;;;;;;;;;;;
2021/04/16 07:54:33;;;;;;;8.18;5.00;;;;;;;1.60;100.00;98492.84;5040651;28;20056;-86
2021/04/16 07:57:32;;;;;;;;;;;;;;;;;;;;;
2021/04/16 08:00:46;;;;;;;11.40;5.93;;;;;;;1.66;100.00;98483.91;5050366;28;20056;-87
2021/04/16 08:03:45;;;;;;;;;;;;;;;;;;;;;
2021/04/16 08:06:30;;;;;;;9.43;5.53;;;;;;;1.67;100.00;98488.22;5052902;28;20048;-87
2021/04/16 08:09:47;;;;;;;9.70;5.60;;;;;;;1.62;100.00;98487.31;5054622;28;20492;-87
2021/04/16 08:12:27;;;;;;;15.63;5.78;;;;;;;1.52;100.00;98460.41;5039308;28;20041;-86
2021/04/16 08:16:17;;;;;;;13.93;6.32;;;;;;;1.68;100.00;98479.16;5066553;28;20045;-86
2021/04/16 08:19:00;;;;;;;10.60;5.75;;;;;;;1.84;100.00;98498.94;5018320;28;20071;-86
2021/04/16 08:21:43;;;;;;;10.85;5.45;;;;;;;1.91;100.00;98498.81;5038938;28;20059;-86
2021/04/16 08:24:38;;;;;;;8.15;4.78;;;;;;;2.07;100.00;98506.84;5036687;28;20052;-86
2021/04/16 08:27:37;;;;;;;8.68;4.90;;;;;;;1.87;100.00;98493.13;5053230;28;20053;-86
2021/04/16 08:30:59;;;;;;;9.65;4.55;;;;;;;2.02;100.00;98497.94;5061254;28;20218;-86
2021/04/16 08:33:43;;;;;;;8.52;4.88;;;;;;;1.95;100.00;98498.09;5014108;23;20049;-77
2021/04/16 08:36:13;;;;;;;7.97;4.85;;;;;;;2.01;100.00;98491.81;5014404;28;20107;-79
2021/04/16 08:39:01;;;;;;;8.40;4.30;;;;;;;2.09;100.00;98496.75;5030780;28;20451;-79
2021/04/16 08:41:34;;;;;;;10.80;4.90;;;;;;;2.11;100.00;98486.66;5015526;28;20038;-79
2021/04/16 08:44:07;;;;;;;7.40;4.95;;;;;;;2.12;100.00;98496.28;5023626;28;20053;-79
2021/04/16 08:46:38;;;;;;;9.52;4.82;;;;;;;2.08;100.00;98495.13;5053688;28;20045;-80
2021/04/16 08:49:20;;;;;;;7.60;4.70;;;;;;;2.16;100.00;98496.59;5053427;28;20052;-80
2021/04/16 08:52:12;;;;;;;7.65;4.45;;;;;;;2.20;100.00;98498.56;5054995;28;20045;-77
2021/04/16 08:54:39;;;;;;;8.38;4.05;;;;;;;2.22;100.00;98501.78;5073412;28;20093;-78
2021/04/16 08:57:19;;;;;;;6.15;3.80;;;;;;;2.29;100.00;98502.47;5055795;28;20443;-79
2021/04/16 08:59:53;;;;;;;6.13;4.35;;;;;;;2.22;100.00;98496.44;5074333;28;20044;-78
2021/04/16 09:02:24;;;;;;;7.10;4.00;;;;;;;2.17;100.00;98500.91;5073062;28;20059;-77
2021/04/16 09:04:55;;;;;;;5.70;3.85;;;;;;;2.13;100.00;98489.06;5073101;28;20051;-78
2021/04/16 09:07:40;;;;;;;7.13;4.47;;;;;;;2.27;100.00;98507.22;5055927;28;20076;-80
2021/04/16 09:10:13;;;;;;;;;;;;;;;2.26;100.00;98508.28;5074654;28;20467;-77
2021/04/16 09:12:39;;;;;;;5.88;3.50;;;;;;;2.13;100.00;98495.22;5074829;28;19921;-80
2021/04/16 09:15:21;;;;;;;6.90;4.20;;;;;;;2.06;100.00;98502.59;5065261;28;20100;-79
2021/04/16 09:17:52;;;;;;;8.00;4.00;;;;;;;2.20;100.00;98509.25;5066809;28;20055;-78
2021/04/16 09:20:23;;;;;;;5.65;3.72;;;;;;;2.09;100.00;98512.75;5098294;28;20119;-79
2021/04/16 09:22:52;;;;;;;5.72;3.83;;;;;;;2.16;100.00;98507.28;5083698;28;20407;-79
2021/04/16 09:25:33;;;;;;;10.38;4.18;;;;;;;2.17;100.00;98506.25;5101852;28;20059;-80
2021/04/16 09:28:21;;;;;;;7.18;4.15;;;;;;;2.34;100.00;98523.13;5084010;28;20115;-79
2021/04/16 09:30:59;;;;;;;9.73;4.32;;;;;;;2.20;100.00;98519.94;5102019;28;20050;-79
2021/04/16 09:33:37;;;;;;;7.45;4.30;;;;;;;2.17;100.00;98517.72;5100393;28;20074;-79
2021/04/16 09:36:28;;;;;;;7.88;4.65;;;;;;;2.17;100.00;98528.41;5047955;28;20574;-78
2021/04/16 09:39:20;;;;;;;9.82;5.10;;;;;;;2.11;100.00;98525.91;5052723;28;20045;-78
2021/04/16 09:41:47;;;;;;;10.48;5.10;;;;;;;2.18;100.00;98522.03;5057389;28;20048;-81
2021/04/16 09:44:28;;;;;;;9.55;4.90;;;;;;;2.19;100.00;98526.34;5053061;28;20044;-78
2021/04/16 09:46:59;;;;;;;11.82;5.93;;;;;;;2.05;100.00;98529.50;5061222;28;20526;-77
2021/04/16 09:49:25;;;;;;;12.30;5.18;;;;;;;2.23;100.00;98530.13;5063706;28;20074;-78
2021/04/16 09:51:54;;;;;;;9.85;5.05;;;;;;;2.41;100.00;98531.78;5063409;28;20068;-79
2021/04/16 09:54:20;;;;;;;9.70;6.05;;;;;;;2.38;100.00;98535.75;5053890;28;20041;-80
2021/04/16 09:57:03;;;;;;;10.65;5.57;;;;;;;2.54;100.00;98526.13;5061847;28;20055;-79
2021/04/16 09:59:40;;;;;;;8.35;5.03;;;;;;;2.67;100.00;98527.69;5047210;28;20494;-80
2021/04/16 10:02:12;;;;;;;7.00;4.72;;;;;;;2.53;100.00;98533.34;5069818;28;20079;-79
2021/04/16 10:05:06;;;;;;;8.52;4.60;;;;;;;2.63;100.00;98524.72;5066110;28;20060;-79
2021/04/16 10:08:01;;;;;;;7.80;4.55;;;;;;;2.74;100.00;98523.81;5053955;28;20132;-80
2021/04/16 10:10:33;;;;;;;10.05;4.53;;;;;;;2.69;100.00;98522.91;5036100;28;20522;-79
2021/04/16 10:13:30;;;;;;;9.10;4.45;;;;;;;2.75;100.00;98529.97;5036538;28;20045;-79
2021/04/16 10:15:59;;;;;;;11.52;4.57;;;;;;;2.81;100.00;98523.66;5050831;28;20056;-81
2021/04/16 10:18:36;;;;;;;14.63;5.85;;;;;;;2.80;100.00;98511.31;5037122;28;20045;-80
2021/04/16 10:21:21;;;;;;;10.65;4.50;;;;;;;2.65;100.00;98513.75;5038964;28;20238;-81
2021/04/16 10:33:40;;;;;;;12.18;5.07;;;;;;;2.76;100.00;98510.22;5055444;28;20048;-81
2021/04/16 10:36:39;;;;;;;11.70;4.90;;;;;;;2.72;100.00;98514.41;5043633;28;20053;-80
2021/04/16 10:55:29;;;;;;;13.75;5.30;;;;;;;3.16;100.00;98502.78;5070340;28;20035;-77
2021/04/16 10:57:18;;;;;;;18.07;6.60;;;;;;;3.40;100.00;98504.22;5048518;28;20045;-79
2021/04/16 12:39:01;;;;;;;12.70;5.33;;;;;;;4.04;100.00;98494.53;5082689;28;20445;-78
2021/04/16 12:41:37;;;;;;;12.77;5.15;;;;;;;4.14;100.00;98502.69;5084061;28;20722;-79
2021/04/16 12:44:05;;;;;;;17.63;5.28;;;;;;;4.38;100.00;98505.88;5102932;28;20043;-77
2021/04/16 12:46:37;;;;;;;14.15;5.50;;;;;;;4.36;100.00;98506.13;5096361;28;20055;-78
2021/04/16 12:49:06;;;;;;;11.90;5.22;;;;;;;4.52;100.00;98501.72;5098425;28;20066;-79
2021/04/16 12:51:32;;;;;;;10.27;4.55;;;;;;;4.46;100.00;98499.25;5087657;28;20044;-78
2021/04/16 12:53:58;;;;;;;17.17;4.75;;;;;;;4.40;100.00;98512.59;5061187;28;20036;-77
2021/04/16 12:56:33;;;;;;;13.55;4.95;;;;;;;4.49;100.00;98496.84;5091411;28;20060;-78
2021/04/16 12:59:07;;;;;;;11.50;5.00;;;;;;;4.50;100.00;98487.75;5079295;28;20113;-76
2021/04/16 13:01:33;;;;;;;10.95;5.43;;;;;;;4.60;100.00;98495.88;5093871;28;20024;-77
2021/04/16 13:04:00;;;;;;;15.75;5.70;;;;;;;4.72;100.00;98490.38;5088017;28;20040;-77
2021/04/16 13:06:47;;;;;;;11.75;5.85;;;;;;;4.76;100.00;98486.91;5090008;28;20132;-77
2021/04/16 13:09:16;;;;;;;14.57;6.43;;;;;;;4.80;100.00;98506.00;5087139;28;20056;-76
2021/04/16 13:11:43;;;;;;;11.15;6.68;;;;;;;4.93;100.00;98495.59;5093316;28;20029;-77
2021/04/16 13:14:09;;;;;;;18.42;7.35;;;;;;;5.07;100.00;98495.16;5067777;28;20052;-76
2021/04/16 13:16:39;;;;;;;13.27;6.78;;;;;;;5.28;100.00;98492.38;5095278;28;20025;-77
2021/04/16 13:19:24;;;;;;;12.90;6.50;;;;;;;5.24;100.00;98477.06;5093013;28;20045;-75
2021/04/16 13:21:56;;;;;;;14.80;6.70;;;;;;;5.09;100.00;98482.28;5093119;28;20690;-76
2021/04/16 13:24:23;;;;;;;17.02;7.13;;;;;;;4.95;100.00;98484.63;5093263;28;20059;-77
2021/04/16 13:26:49;;;;;;;13.60;7.07;;;;;;;4.75;100.00;98482.59;5085745;28;20657;-77
2021/04/16 13:29:15;;;;;;;16.05;6.82;;;;;;;4.86;100.00;98478.13;5079701;28;20458;-79
2021/04/16 13:31:41;;;;;;;16.70;7.72;;;;;;;4.95;100.00;98473.91;5084981;28;20041;-76
2021/04/16 13:34:09;;;;;;;20.75;7.85;;;;;;;4.94;100.00;98474.97;5082229;28;20620;-77
2021/04/16 13:36:35;;;;;;;16.10;7.90;;;;;;;5.07;100.00;98481.75;5063666;28;20045;-78
2021/04/16 13:39:05;;;;;;;14.88;9.38;;;;;;;5.21;100.00;98466.81;5061788;28;20244;-78
2021/04/16 13:41:34;;;;;;;23.38;9.93;;;;;;;5.16;100.00;98462.25;5062642;28;20043;-77
2021/04/16 13:44:03;;;;;;;18.92;10.43;;;;;;;5.25;100.00;98465.22;5041903;28;20075;-79
2021/04/16 13:46:32;;;;;;;17.45;10.55;;;;;;;5.29;100.00;98466.34;5056381;28;20041;-77
2021/04/16 13:49:00;;;;;;;19.20;11.40;;;;;;;5.43;100.00;98454.03;5063074;28;20064;-77
2021/04/16 13:51:28;;;;;;;19.38;12.00;;;;;;;5.59;100.00;98445.81;5062927;28;20272;-77
2021/04/16 13:53:54;;;;;;;20.58;11.82;;;;;;;5.59;100.00;98442.31;5063223;28;20021;-76
2021/04/16 13:56:21;;;;;;;23.63;12.95;;;;;;;5.31;100.00;98440.84;5063640;28;20250;-76
2021/04/16 13:58:47;;;;;;;21.25;13.00;;;;;;;5.29;100.00;98437.59;5062604;28;20045;-77
2021/04/16 14:01:13;;;;;;;24.77;13.90;;;;;;;5.53;100.00;98446.03;5043661;28;20044;-76
2021/04/16 14:03:45;;;;;;;23.05;13.13;;;;;;;5.65;100.00;98441.28;5037609;28;20051;-77
2021/04/16 14:06:20;;;;;;;23.90;12.02;;;;;;;5.62;100.00;98439.09;5059623;28;20067;-77
2021/04/16 14:08:59;;;;;;;18.00;12.43;;;;;;;5.55;100.00;98430.47;5055007;28;20048;-78
2021/04/16 14:11:28;;;;;;;23.80;13.32;;;;;;;5.58;100.00;98446.06;5038043;28;20045;-80
2021/04/16 14:13:54;;;;;;;22.40;12.30;;;;;;;5.46;100.00;98440.91;5058392;28;20049;-77
2021/04/16 14:16:26;;;;;;;17.85;10.20;;;;;;;5.25;100.00;98436.50;5062401;28;20025;-76
2021/04/16 14:18:55;;;;;;;20.38;11.90;;;;;;;5.41;100.00;98432.03;5065703;28;20041;-78
2021/04/16 14:21:21;;;;;;;18.10;11.13;;;;;;;5.48;100.00;98421.84;5044970;28;20048;-78
2021/04/16 14:23:49;;;;;;;18.77;11.65;;;;;;;5.58;100.00;98430.75;5041071;28;20488;-77
2021/04/16 14:26:17;;;;;;;19.42;12.23;;;;;;;5.52;100.00;98426.41;5060694;28;20048;-76
2021/04/16 14:28:44;;;;;;;20.50;11.25;;;;;;;5.57;100.00;98429.13;5060804;28;20059;-76
2021/04/16 14:31:12;;;;;;;22.20;13.85;;;;;;;5.52;100.00;98429.09;5065741;28;20076;-77
2021/04/16 14:36:18;;;;;;;19.02;11.68;;;;;;;5.53;100.00;98419.19;5060914;28;20049;-85
2021/04/16 14:38:44;;;;;;;20.67;11.60;;;;;;;5.60;100.00;98423.22;5065298;28;20036;-83